createdAt,value
2022-12-09T00:01:22.542Z,19.70
2022-12-09T00:03:50.910Z,19.50
2022-12-09T00:06:23.284Z,19.20
2022-12-09T00:08:52.473Z,20.00
2022-12-09T00:11:22.082Z,20.10
2022-12-09T00:13:55.911Z,19.70
2022-12-09T00:16:25.667Z,19.40
2022-12-09T00:18:53.704Z,20.10
2022-12-09T00:21:25.954Z,18.00
2022-12-09T00:23:55.731Z,20.50
2022-12-09T00:26:25.952Z,18.80
2022-12-09T00:28:56.114Z,19.20
2022-12-09T00:31:30.413Z,19.60
2022-12-09T00:34:02.499Z,18.10
2022-12-09T00:36:31.734Z,18.80
2022-12-09T00:39:00.488Z,17.50
2022-12-09T00:41:30.035Z,19.10
2022-12-09T00:43:59.087Z,19.30
2022-12-09T00:46:27.712Z,18.20
2022-12-09T00:48:56.406Z,18.00
2022-12-09T00:51:26.031Z,17.80
2022-12-09T00:53:54.692Z,16.80
2022-12-09T00:56:28.502Z,16.10
2022-12-09T00:58:58.749Z,16.80
2022-12-09T01:01:28.413Z,16.90
2022-12-09T01:03:57.393Z,17.50
2022-12-09T01:06:26.977Z,17.50
2022-12-09T01:08:55.519Z,17.20
2022-12-09T01:11:28.986Z,16.10
2022-12-09T01:14:02.701Z,14.80
2022-12-09T01:16:33.706Z,15.90
2022-12-09T01:19:04.977Z,13.40
2022-12-09T01:21:35.027Z,14.10
2022-12-09T01:24:09.241Z,14.90
2022-12-09T01:26:38.732Z,14.60
2022-12-09T01:29:09.795Z,14.40
2022-12-09T01:31:38.262Z,14.20
2022-12-09T01:34:06.534Z,13.50
2022-12-09T01:36:34.896Z,13.40
2022-12-09T01:39:03.428Z,13.80
2022-12-09T01:41:31.664Z,13.50
2022-12-09T01:44:31.899Z,12.70
2022-12-09T01:47:02.604Z,13.70
2022-12-09T01:49:42.679Z,13.30
2022-12-09T01:52:17.457Z,12.90
2022-12-09T01:54:47.243Z,14.20
2022-12-09T01:57:16.457Z,14.70
2022-12-09T01:59:46.623Z,14.00
2022-12-09T02:02:17.798Z,13.90
2022-12-09T02:04:48.783Z,15.20
2022-12-09T02:07:18.658Z,14.60
2022-12-09T02:09:47.240Z,13.80
2022-12-09T02:12:23.108Z,14.30
2022-12-09T02:15:03.387Z,13.30
2022-12-09T02:17:42.290Z,12.50
2022-12-09T02:20:33.487Z,12.30
2022-12-09T02:23:10.596Z,12.30
2022-12-09T02:25:46.465Z,12.20
2022-12-09T02:28:23.839Z,11.60
2022-12-09T02:31:04.424Z,12.00
2022-12-09T02:34:03.785Z,12.10
2022-12-09T02:36:40.426Z,12.40
2022-12-09T02:39:11.038Z,13.30
2022-12-09T02:41:44.133Z,14.10
2022-12-09T02:44:17.190Z,14.60
2022-12-09T02:46:46.813Z,15.10
2022-12-09T02:49:16.608Z,14.80
2022-12-09T02:51:45.751Z,14.20
2022-12-09T02:54:17.725Z,14.40
2022-12-09T02:56:54.147Z,13.40
2022-12-09T02:59:22.437Z,14.20
2022-12-09T03:02:21.104Z,14.30
2022-12-09T03:05:10.225Z,14.00
2022-12-09T03:08:03.416Z,15.20
2022-12-09T03:10:54.149Z,16.00
2022-12-09T03:13:37.734Z,16.00
2022-12-09T03:16:27.165Z,16.20
2022-12-09T03:19:01.820Z,15.10
2022-12-09T03:21:32.904Z,14.00
2022-12-09T03:24:02.650Z,13.60
2022-12-09T03:26:33.222Z,14.50
2022-12-09T03:29:06.006Z,14.90
2022-12-09T03:31:36.937Z,17.40
2022-12-09T03:34:07.949Z,17.10
2022-12-09T03:36:40.945Z,17.40
2022-12-09T03:39:19.285Z,17.60
2022-12-09T03:41:58.418Z,18.90
2022-12-09T03:44:31.281Z,19.50
2022-12-09T03:46:59.665Z,17.90
2022-12-09T03:49:28.367Z,19.00
2022-12-09T03:52:28.343Z,17.10
2022-12-09T03:55:07.025Z,16.50
2022-12-09T03:57:39.893Z,15.60
2022-12-09T04:00:09.482Z,18.50
2022-12-09T04:02:38.539Z,12.50
2022-12-09T04:05:07.779Z,16.50
2022-12-09T04:07:36.109Z,15.30
2022-12-09T04:10:04.995Z,15.10
2022-12-09T04:12:33.911Z,14.00
2022-12-09T04:15:02.575Z,13.40
2022-12-09T04:17:30.879Z,12.50
2022-12-09T04:19:59.947Z,12.00
2022-12-09T04:22:28.108Z,8.30
2022-12-09T04:24:56.586Z,11.60
2022-12-09T04:27:24.848Z,9.60
2022-12-09T04:29:53.223Z,10.70
2022-12-09T04:32:22.501Z,11.90
2022-12-09T04:34:51.327Z,11.50
2022-12-09T04:37:19.648Z,12.00
2022-12-09T04:39:47.932Z,13.20
2022-12-09T04:42:16.378Z,19.60
2022-12-09T04:44:44.454Z,23.10
2022-12-09T04:47:12.921Z,19.50
2022-12-09T04:49:40.955Z,17.70
2022-12-09T04:52:09.260Z,17.70
2022-12-09T04:54:37.362Z,12.90
2022-12-09T04:57:05.395Z,14.60
2022-12-09T04:59:33.700Z,14.00
2022-12-09T05:02:02.277Z,13.20
2022-12-09T05:04:30.661Z,14.60
2022-12-09T05:06:59.462Z,11.70
2022-12-09T05:09:27.857Z,12.70
2022-12-09T05:11:59.332Z,11.40
2022-12-09T05:14:27.548Z,9.90
2022-12-09T05:16:56.286Z,7.90
2022-12-09T05:19:25.206Z,7.80
2022-12-09T05:21:53.673Z,7.70
2022-12-09T05:24:21.908Z,7.70
2022-12-09T05:26:51.913Z,7.50
2022-12-09T05:29:23.029Z,7.60
2022-12-09T05:31:52.530Z,8.10
2022-12-09T05:34:21.153Z,7.50
2022-12-09T05:36:49.705Z,6.70
2022-12-09T05:39:18.233Z,8.30
2022-12-09T05:41:46.631Z,7.70
2022-12-09T05:44:15.318Z,7.90
2022-12-09T05:46:43.564Z,7.60
2022-12-09T05:49:12.148Z,9.00
2022-12-09T05:51:40.852Z,10.00
2022-12-09T05:54:09.164Z,11.50
2022-12-09T05:56:39.481Z,13.10
2022-12-09T05:59:11.454Z,14.00
2022-12-09T06:01:39.789Z,17.90
2022-12-09T06:04:08.240Z,15.90
2022-12-09T06:06:36.997Z,15.80
2022-12-09T06:09:05.873Z,18.10
2022-12-09T06:11:34.212Z,17.50
2022-12-09T06:14:02.831Z,18.40
2022-12-09T06:16:31.394Z,18.90
2022-12-09T06:18:59.992Z,20.10
2022-12-09T06:21:28.538Z,21.70
2022-12-09T06:23:57.464Z,21.10
2022-12-09T06:26:28.252Z,19.10
2022-12-09T06:28:57.760Z,19.80
2022-12-09T06:31:27.623Z,20.30
2022-12-09T06:33:58.335Z,19.60
2022-12-09T06:36:29.616Z,18.80
2022-12-09T06:39:04.497Z,19.10
2022-12-09T06:41:38.680Z,21.00
2022-12-09T06:44:07.533Z,21.60
2022-12-09T06:46:36.101Z,23.70
2022-12-09T06:49:04.879Z,22.10
2022-12-09T06:51:33.409Z,20.60
2022-12-09T06:54:02.441Z,21.00
2022-12-09T06:56:31.230Z,21.30
2022-12-09T06:58:59.929Z,19.80
2022-12-09T07:01:28.630Z,19.10
2022-12-09T07:03:57.428Z,17.90
2022-12-09T07:06:32.840Z,18.20
2022-12-09T07:09:05.496Z,18.30
2022-12-09T07:11:35.048Z,19.80
2022-12-09T07:14:04.441Z,20.00
2022-12-09T07:16:33.092Z,20.00
2022-12-09T07:19:03.408Z,22.40
2022-12-09T07:21:33.235Z,20.00
2022-12-09T07:24:03.728Z,21.90
2022-12-09T07:26:33.717Z,19.40
2022-12-09T07:29:03.826Z,19.30
2022-12-09T07:31:33.658Z,22.60
2022-12-09T07:34:03.952Z,20.00
2022-12-09T07:36:34.532Z,19.50
2022-12-09T07:39:06.551Z,17.90
2022-12-09T07:41:35.311Z,14.20
2022-12-09T07:44:04.907Z,13.50
2022-12-09T07:46:34.109Z,11.80
2022-12-09T07:49:06.356Z,9.80
2022-12-09T07:51:34.992Z,8.80
2022-12-09T07:54:04.121Z,8.20
2022-12-09T07:56:32.268Z,6.90
2022-12-09T07:59:00.829Z,6.80
2022-12-09T08:01:30.194Z,7.30
2022-12-09T08:03:59.322Z,6.50
2022-12-09T08:06:29.668Z,5.30
2022-12-09T08:09:04.085Z,5.60
2022-12-09T08:11:34.176Z,6.00
2022-12-09T08:14:11.070Z,5.20
2022-12-09T08:16:42.598Z,4.60
2022-12-09T08:19:12.212Z,5.30
2022-12-09T08:21:40.760Z,5.30
2022-12-09T08:24:11.991Z,4.90
2022-12-09T08:26:42.213Z,4.80
2022-12-09T08:29:13.295Z,5.00
2022-12-09T08:31:43.710Z,3.90
2022-12-09T08:34:13.177Z,4.10
2022-12-09T08:36:42.687Z,4.60
2022-12-09T08:39:13.200Z,4.40
2022-12-09T08:41:43.834Z,4.30
2022-12-09T08:44:16.192Z,3.90
2022-12-09T08:46:48.522Z,3.50
2022-12-09T08:49:19.436Z,2.50
2022-12-09T08:51:50.196Z,3.60
2022-12-09T08:54:19.829Z,2.90
2022-12-09T08:56:50.202Z,3.10
2022-12-09T08:59:19.491Z,3.00
2022-12-09T09:01:48.654Z,2.60
2022-12-09T09:04:19.375Z,3.00
2022-12-09T09:06:50.418Z,2.90
2022-12-09T09:09:21.354Z,3.30
2022-12-09T09:11:50.245Z,3.20
2022-12-09T09:14:18.406Z,3.40
2022-12-09T09:16:47.259Z,3.60
2022-12-09T09:19:20.409Z,3.30
2022-12-09T09:21:49.859Z,3.80
2022-12-09T09:24:20.592Z,2.90
2022-12-09T09:26:50.489Z,2.60
2022-12-09T09:29:22.043Z,2.80
2022-12-09T09:31:51.943Z,2.50
2022-12-09T09:34:21.712Z,2.70
2022-12-09T09:36:50.503Z,2.40
2022-12-09T09:39:20.170Z,2.60
2022-12-09T09:41:48.261Z,2.90
2022-12-09T09:44:34.797Z,3.10
2022-12-09T09:47:12.467Z,3.20
2022-12-09T09:49:47.021Z,3.10
2022-12-09T09:52:21.834Z,3.60
2022-12-09T09:54:51.361Z,4.10
2022-12-09T09:57:25.641Z,3.70
2022-12-09T10:00:22.658Z,4.40
2022-12-09T10:03:02.848Z,4.10
2022-12-09T10:05:36.523Z,7.00
2022-12-09T10:08:37.583Z,8.40
2022-12-09T10:11:21.435Z,7.30
2022-12-09T10:14:20.379Z,8.70
2022-12-09T10:19:50.524Z,9.00
2022-12-09T10:22:29.105Z,9.00
2022-12-09T10:25:03.469Z,9.20
2022-12-09T10:27:45.969Z,9.50
2022-12-09T10:30:17.651Z,9.70
2022-12-09T10:32:46.851Z,8.50
2022-12-09T10:35:25.751Z,9.00
2022-12-09T10:37:57.109Z,8.60
2022-12-09T10:40:36.271Z,8.30
2022-12-09T10:43:24.783Z,9.00
2022-12-09T10:48:47.966Z,6.40
2022-12-09T10:51:29.036Z,6.70
2022-12-09T10:54:22.468Z,7.00
2022-12-09T10:57:27.630Z,6.60
2022-12-09T11:00:03.295Z,6.90
2022-12-09T11:02:33.876Z,7.20
2022-12-09T11:05:24.093Z,7.70
2022-12-09T11:07:54.658Z,8.10
2022-12-09T11:10:26.611Z,8.00
2022-12-09T11:13:04.585Z,10.10
2022-12-09T11:15:46.169Z,9.90
2022-12-09T11:18:24.670Z,10.00
2022-12-09T11:21:03.125Z,10.20
2022-12-09T11:23:32.641Z,10.40
2022-12-09T11:26:07.561Z,10.80
2022-12-09T11:28:39.566Z,10.50
2022-12-09T11:31:29.326Z,14.50
2022-12-09T11:34:01.403Z,14.90
2022-12-09T11:36:49.970Z,14.10
2022-12-09T11:39:20.295Z,14.20
2022-12-09T11:41:53.154Z,16.20
2022-12-09T11:44:31.809Z,18.80
2022-12-09T11:47:09.796Z,19.60
2022-12-09T11:49:51.326Z,18.10
2022-12-09T11:52:19.322Z,15.30
2022-12-09T11:55:11.613Z,14.30
2022-12-09T11:57:45.811Z,13.50
2022-12-09T12:00:19.424Z,14.50
2022-12-09T12:03:04.541Z,16.80
2022-12-09T12:05:48.436Z,14.70
2022-12-09T12:08:55.829Z,12.90
2022-12-09T12:11:31.770Z,13.20
2022-12-09T12:14:19.387Z,11.30
2022-12-09T12:16:50.533Z,11.30
2022-12-09T12:19:43.487Z,11.80
2022-12-09T12:22:17.622Z,11.00
2022-12-09T12:25:18.224Z,11.40
2022-12-09T12:28:14.621Z,11.20
2022-12-09T12:30:54.940Z,10.80
2022-12-09T12:38:58.272Z,12.00
2022-12-09T12:41:43.374Z,12.30
2022-12-09T12:44:49.059Z,12.80
2022-12-09T12:47:43.539Z,12.20
2022-12-09T12:50:20.504Z,12.00
2022-12-09T12:53:01.027Z,12.30
2022-12-09T12:55:54.022Z,12.20
2022-12-09T12:58:31.124Z,10.90
2022-12-09T13:04:06.225Z,14.10
2022-12-09T13:06:50.628Z,15.30
2022-12-09T13:09:25.879Z,14.10
2022-12-09T13:12:21.450Z,14.60
2022-12-09T13:14:53.995Z,13.90
2022-12-09T13:17:29.504Z,13.80
2022-12-09T13:20:01.402Z,13.90
2022-12-09T13:22:52.594Z,14.80
2022-12-09T13:25:35.540Z,15.80
2022-12-09T13:28:51.904Z,14.70
2022-12-09T13:31:28.512Z,13.50
2022-12-09T13:34:02.877Z,13.40
2022-12-09T13:36:47.559Z,13.60
2022-12-09T13:39:40.787Z,13.30
2022-12-09T13:42:24.250Z,13.00
2022-12-09T13:45:05.665Z,12.20
2022-12-09T13:47:36.872Z,12.80
2022-12-09T13:50:23.477Z,11.90
2022-12-09T13:52:56.256Z,10.90
2022-12-09T13:55:33.472Z,12.60
2022-12-09T13:58:20.338Z,11.50
2022-12-09T14:01:11.890Z,10.00
2022-12-09T14:03:49.714Z,9.20
2022-12-09T14:06:33.017Z,9.30
2022-12-09T14:09:06.084Z,8.30
2022-12-09T14:11:43.137Z,8.50
2022-12-09T14:14:23.789Z,7.10
2022-12-09T14:17:25.544Z,7.00
2022-12-09T14:20:00.608Z,8.00
2022-12-09T14:22:33.089Z,9.80
2022-12-09T14:25:27.105Z,11.20
2022-12-09T14:28:26.240Z,11.50
2022-12-09T14:30:59.731Z,12.00
2022-12-09T14:33:34.785Z,11.60
2022-12-09T14:36:14.873Z,12.60
2022-12-09T14:39:16.097Z,10.90
2022-12-09T14:41:52.224Z,11.10
2022-12-09T14:44:45.150Z,11.00
2022-12-09T14:47:22.717Z,10.50
2022-12-09T14:49:52.951Z,11.00
2022-12-09T14:52:30.706Z,10.90
2022-12-09T14:55:02.655Z,10.10
2022-12-09T14:57:37.683Z,9.30
2022-12-09T15:00:07.698Z,6.30
2022-12-09T15:02:35.990Z,8.80
2022-12-09T15:05:16.902Z,9.50
2022-12-09T15:07:45.827Z,9.50
2022-12-09T15:10:34.934Z,9.90
2022-12-09T15:13:03.781Z,11.00
2022-12-09T15:15:35.710Z,10.20
2022-12-09T15:18:16.374Z,9.80
2022-12-09T15:20:54.313Z,10.60
2022-12-09T15:23:23.831Z,11.20
2022-12-09T15:25:54.510Z,11.90
2022-12-09T15:28:26.752Z,12.10
2022-12-09T15:31:00.824Z,11.80
2022-12-09T15:33:32.788Z,12.50
2022-12-09T15:36:04.451Z,13.00
2022-12-09T15:38:40.705Z,12.30
2022-12-09T15:41:10.274Z,13.80
2022-12-09T15:43:40.914Z,15.10
2022-12-09T15:46:10.975Z,12.80
2022-12-09T15:48:45.764Z,12.60
2022-12-09T15:51:18.926Z,13.20
2022-12-09T15:53:57.875Z,12.90
2022-12-09T15:56:52.085Z,13.70
2022-12-09T15:59:22.522Z,14.00
2022-12-09T16:01:56.850Z,12.40
2022-12-09T16:04:29.793Z,13.20
2022-12-09T16:07:08.855Z,13.50
2022-12-09T16:09:36.999Z,14.10
2022-12-09T16:12:05.783Z,13.20
2022-12-09T16:14:44.454Z,12.40
2022-12-09T16:17:36.810Z,12.20
2022-12-09T16:20:32.912Z,12.60
2022-12-09T16:23:02.629Z,12.10
2022-12-09T16:25:39.128Z,12.20
2022-12-09T16:28:07.341Z,11.80
2022-12-09T16:30:45.455Z,12.70
2022-12-09T16:33:39.258Z,12.40
2022-12-09T16:36:07.792Z,12.10
2022-12-09T16:38:37.528Z,13.00
2022-12-09T16:41:09.225Z,12.80
2022-12-09T16:43:53.246Z,13.70
2022-12-09T16:46:40.791Z,13.60
2022-12-09T16:49:09.009Z,13.40
2022-12-09T16:51:38.645Z,13.90
2022-12-09T16:54:19.628Z,13.30
2022-12-09T16:56:48.638Z,12.80
2022-12-09T16:59:16.954Z,13.80
2022-12-09T17:01:45.233Z,13.50
2022-12-09T17:04:13.471Z,12.70
2022-12-09T17:06:41.488Z,12.60
2022-12-09T17:09:10.705Z,13.70
2022-12-09T17:11:40.995Z,13.00
2022-12-09T17:14:12.747Z,15.10
2022-12-09T17:16:40.853Z,13.90
2022-12-09T17:19:08.993Z,13.70
2022-12-09T17:21:37.013Z,13.60
2022-12-09T17:24:05.660Z,13.50
2022-12-09T17:26:33.648Z,11.90
2022-12-09T17:29:02.240Z,11.50
2022-12-09T17:31:30.409Z,11.40
2022-12-09T17:33:58.703Z,11.50
2022-12-09T17:36:26.836Z,10.20
2022-12-09T17:38:55.124Z,11.00
2022-12-09T17:41:23.148Z,11.30
2022-12-09T17:43:51.868Z,11.00
2022-12-09T17:46:19.948Z,11.40
2022-12-09T17:48:48.001Z,10.40
2022-12-09T17:51:16.704Z,11.30
2022-12-09T17:53:46.640Z,10.20
2022-12-09T17:56:18.514Z,9.40
2022-12-09T17:58:47.310Z,8.50
2022-12-09T18:01:22.053Z,8.40
2022-12-09T18:04:01.366Z,8.20
2022-12-09T18:06:32.286Z,8.20
2022-12-09T18:09:01.697Z,7.70
2022-12-09T18:11:29.777Z,6.60
2022-12-09T18:13:58.258Z,7.00
2022-12-09T18:16:26.438Z,6.50
2022-12-09T18:18:55.004Z,6.10
2022-12-09T18:21:23.230Z,6.10
2022-12-09T18:23:51.319Z,5.50
2022-12-09T18:26:19.930Z,5.60
2022-12-09T18:28:48.382Z,6.20
2022-12-09T18:31:18.177Z,5.60
2022-12-09T18:33:46.959Z,6.30
2022-12-09T18:36:20.246Z,6.70
2022-12-09T18:38:49.136Z,6.70
2022-12-09T18:41:23.426Z,6.20
2022-12-09T18:43:54.367Z,7.00
2022-12-09T18:46:26.533Z,6.90
2022-12-09T18:49:01.994Z,6.60
2022-12-09T18:51:31.078Z,6.20
2022-12-09T18:54:01.446Z,6.80
2022-12-09T18:56:30.459Z,6.80
2022-12-09T18:59:07.999Z,6.40
2022-12-09T19:01:42.591Z,6.50
2022-12-09T19:04:14.606Z,5.90
2022-12-09T19:06:45.306Z,5.40
2022-12-09T19:09:20.711Z,5.60
2022-12-09T19:11:50.275Z,4.90
2022-12-09T19:14:21.003Z,4.80
2022-12-09T19:16:50.363Z,5.00
2022-12-09T19:19:22.902Z,5.40
2022-12-09T19:21:55.399Z,5.50
2022-12-09T19:24:30.498Z,4.90
2022-12-09T19:27:02.340Z,4.70
2022-12-09T19:29:30.448Z,5.10
2022-12-09T19:31:58.509Z,4.90
2022-12-09T19:34:29.585Z,5.00
2022-12-09T19:37:00.490Z,4.50
2022-12-09T19:39:31.063Z,5.60
2022-12-09T19:41:59.542Z,5.10
2022-12-09T19:44:59.413Z,5.70
2022-12-09T19:47:17.072Z,6.10
2022-12-09T19:49:45.064Z,6.20
2022-12-09T19:52:13.149Z,6.00
2022-12-09T19:54:41.613Z,6.10
2022-12-09T19:57:10.214Z,5.70
2022-12-09T19:59:38.239Z,6.50
2022-12-09T20:02:07.364Z,6.80
2022-12-09T20:04:51.525Z,6.70
2022-12-09T20:07:20.949Z,6.80
2022-12-09T20:09:49.178Z,6.20
2022-12-09T20:12:17.203Z,6.20
2022-12-09T20:14:46.631Z,5.90
2022-12-09T20:17:14.699Z,5.80
2022-12-09T20:19:42.672Z,4.70
2022-12-09T20:22:11.079Z,5.20
2022-12-09T20:24:39.253Z,5.00
2022-12-09T20:27:07.310Z,4.40
2022-12-09T20:29:38.346Z,4.10
2022-12-09T20:32:08.619Z,4.00
2022-12-09T20:34:37.404Z,3.90
2022-12-09T20:37:05.614Z,4.40
2022-12-09T20:39:33.775Z,4.50
2022-12-09T20:42:02.069Z,4.00
2022-12-09T20:44:30.131Z,4.60
2022-12-09T20:46:58.360Z,4.20
2022-12-09T20:49:27.251Z,5.10
2022-12-09T20:51:55.703Z,5.00
2022-12-09T20:54:23.803Z,5.00
2022-12-09T20:56:52.631Z,4.60
2022-12-09T20:59:20.863Z,4.70
2022-12-09T21:01:48.977Z,4.80
2022-12-09T21:04:17.444Z,4.80
2022-12-09T21:06:46.216Z,3.90
2022-12-09T21:09:19.997Z,4.00
2022-12-09T21:11:49.654Z,4.30
2022-12-09T21:14:18.044Z,4.10
2022-12-09T21:16:47.941Z,4.30
2022-12-09T21:19:17.673Z,4.40
2022-12-09T21:21:46.519Z,4.90
2022-12-09T21:24:16.284Z,4.60
2022-12-09T21:26:44.980Z,4.60
2022-12-09T21:29:14.183Z,5.50
2022-12-09T21:31:43.104Z,4.10
2022-12-09T21:34:11.414Z,4.50
2022-12-09T21:36:42.707Z,4.10
2022-12-09T21:39:14.296Z,4.30
2022-12-09T21:41:42.924Z,4.10
2022-12-09T21:44:17.057Z,3.80
2022-12-09T21:46:46.128Z,3.60
2022-12-09T21:49:14.541Z,3.80
2022-12-09T21:51:43.362Z,4.10
2022-12-09T21:54:12.024Z,3.70
2022-12-09T21:56:40.352Z,4.00
2022-12-09T21:59:10.640Z,3.50
2022-12-09T22:01:41.424Z,3.40
2022-12-09T22:04:13.849Z,3.00
2022-12-09T22:06:48.138Z,2.90
2022-12-09T22:09:18.260Z,3.20
2022-12-09T22:11:46.267Z,3.60
2022-12-09T22:14:14.290Z,3.60
2022-12-09T22:16:44.549Z,3.50
2022-12-09T22:19:18.436Z,3.80
2022-12-09T22:21:47.304Z,4.30
2022-12-09T22:24:15.773Z,4.40
2022-12-09T22:26:44.259Z,4.50
2022-12-09T22:29:14.633Z,4.50
2022-12-09T22:31:43.972Z,4.50
2022-12-09T22:34:17.890Z,4.40
2022-12-09T22:36:47.849Z,4.60
2022-12-09T22:39:18.751Z,4.80
2022-12-09T22:41:46.854Z,4.90
2022-12-09T22:44:17.718Z,4.40
2022-12-09T22:46:46.279Z,5.40
2022-12-09T22:49:15.733Z,5.00
2022-12-09T22:51:44.880Z,5.20
2022-12-09T22:54:14.610Z,5.00
2022-12-09T22:56:43.887Z,4.30
2022-12-09T22:59:14.252Z,4.90
2022-12-09T23:01:45.044Z,4.10
2022-12-09T23:04:16.118Z,3.60
2022-12-09T23:06:44.664Z,3.90
2022-12-09T23:09:21.680Z,3.40
2022-12-09T23:11:51.707Z,3.70
2022-12-09T23:14:20.047Z,3.40
2022-12-09T23:16:48.176Z,2.80
2022-12-09T23:19:16.293Z,3.20
2022-12-09T23:21:44.281Z,3.50
2022-12-09T23:24:21.005Z,3.60
2022-12-09T23:26:55.869Z,3.30
2022-12-09T23:29:23.989Z,3.80
2022-12-09T23:31:52.253Z,3.50
2022-12-09T23:34:22.284Z,3.60
2022-12-09T23:36:50.785Z,3.60
2022-12-09T23:39:19.607Z,3.90
2022-12-09T23:41:49.060Z,4.00
2022-12-09T23:44:19.160Z,4.30
2022-12-09T23:46:47.249Z,3.70
2022-12-09T23:49:15.425Z,3.70
2022-12-09T23:51:44.179Z,3.00
2022-12-09T23:54:14.806Z,3.80
2022-12-09T23:56:44.738Z,3.20
2022-12-09T23:59:14.636Z,3.00
